Paradise — 3FOB5 — position and weather

sailwx.info

Track history (hours):
 
Tides and Currents Weather Stations Pressure Air Temp Water Temp Dewpoint Dewpoint Depression Visibility Wind Speed Wind Dir Waves Ship Positions

Paradise

Operator: Carnival Cruise Lines

Last reported at 2017-May-25 07:00 UTC. Time now 2017-May-25 10:29 UTC.
Position N 19°00' W 087°06'.

Type: Ship. MMSI: 355833000.

Wind from 140 at 22 knots

Barometer 1010.1 mb
Air temperature 28.0 ° C
Visibility: greater than 5.4 NM
Dewpoint 25.3 ° C
Water temperature 27.0 ° C

Date/timePositionNaut miles runAvg speedWind from/ knotsBaromVisibWave heightAir tempDewpointWater temp
2017-May-25 07:00N 19°00' W 087°06'8314.8 140 / 221010.1 5.4 28.025.327.0
2017-May-25 01:23N 20°23' W 087°04'614.5
2017-May-25 01:00N 20°28' W 087°02'4 7.1
2017-May-25 00:30N 20°29' W 086°59'0 0.6
2017-May-24 23:56N 20°29' W 086°59'0 0.0
2017-May-24 23:29N 20°29' W 086°59'0 0.0
2017-May-24 22:59N 20°29' W 086°59'0 0.0
2017-May-24 22:29N 20°29' W 086°59'0 0.0
2017-May-24 21:59N 20°29' W 086°59'0 0.0
2017-May-24 21:28N 20°29' W 086°59'0 0.0
2017-May-24 20:58N 20°29' W 086°59'0 0.0
2017-May-24 20:28N 20°29' W 086°59'0 0.0
2017-May-24 19:55N 20°29' W 086°59'0 0.0
2017-May-24 19:21N 20°29' W 086°59'0 0.0
2017-May-24 19:00N 20°29' W 086°59'0 0.0
2017-May-24 18:30N 20°29' W 086°59'0 0.0
2017-May-24 18:00N 20°29' W 086°59'0 0.0
2017-May-24 17:30N 20°29' W 086°59'0 0.0
2017-May-24 16:59N 20°29' W 086°59'0 0.0
2017-May-24 16:29N 20°29' W 086°59'0 0.0
2017-May-24 15:59N 20°29' W 086°59'0 0.0
2017-May-24 15:29N 20°29' W 086°59'0 0.0
2017-May-24 14:59N 20°29' W 086°59'0 0.0
2017-May-24 14:28N 20°29' W 086°59'0 0.0
2017-May-24 13:28N 20°29' W 086°59'0 0.0
2017-May-24 12:58N 20°29' W 086°59'0 0.0
2017-May-24 12:31N 20°29' W 086°59'0 0.0
2017-May-24 12:00N 20°29' W 086°59'0 0.8
2017-May-24 11:30N 20°29' W 086°59'4 7.9
2017-May-24 11:00N 20°33' W 086°57'4611.4
2017-May-24 07:00N 21°06' W 086°24'11410.3 150 / 301011.1 5.4 28.025.327.0
2017-May-23 20:00N 22°48' W 085°30'20015.4 160 / 271012.5 5.4 28.025.326.0
2017-May-23 07:00N 25°48' W 083°54'12915.1 160 / 211014.0 5.4 26.023.225.0
2017-May-22 22:27N 27°38' W 082°38'714.7
2017-May-22 21:59N 27°43' W 082°33'612.9
2017-May-22 21:31N 27°48' W 082°29'612.3
2017-May-22 21:00N 27°54' W 082°26'3 5.6
2017-May-22 20:30N 27°56' W 082°27'0 0.8
2017-May-22 20:00N 27°57' W 082°27'0 0.0
2017-May-22 19:30N 27°57' W 082°27'0 0.0
2017-May-22 19:00N 27°57' W 082°27'0 0.0
2017-May-22 18:29N 27°57' W 082°27'0 0.0
2017-May-22 17:59N 27°57' W 082°27'0 0.0
2017-May-22 17:29N 27°57' W 082°27'0 0.0
2017-May-22 16:59N 27°57' W 082°27'0 0.0
2017-May-22 16:29N 27°57' W 082°27'0 0.0
2017-May-22 15:58N 27°57' W 082°27'0 0.0
2017-May-22 15:28N 27°57' W 082°27'0 0.0
2017-May-22 14:58N 27°57' W 082°27'0 0.0
2017-May-22 14:01N 27°57' W 082°27'0 0.0
2017-May-22 13:30N 27°57' W 082°27'0 0.0
2017-May-22 13:00N 27°57' W 082°27'0 0.0
2017-May-22 12:30N 27°57' W 082°27'0 0.0
2017-May-22 12:00N 27°57' W 082°27'0 0.2
2017-May-22 11:30N 27°57' W 082°27'2 4.4
2017-May-22 11:00N 27°54' W 082°26'510.6
2017-May-22 10:31N 27°49' W 082°27'612.6
2017-May-22 10:00N 27°45' W 082°32'713.9
2017-May-22 09:30N 27°39' W 082°37'15211.2
2017-May-21 20:00N 25°30' W 084°06'33215.9 120 / 111018.5 5.4 27.025.725.0
2017-May-20 23:05N 20°38' W 086°56'218.4
2017-May-20 22:59N 20°36' W 086°57'714.6
2017-May-20 22:30N 20°30' W 086°59'1 2.2
2017-May-20 22:00N 20°29' W 086°59'0 0.0
2017-May-20 21:30N 20°29' W 086°59'0 0.0
2017-May-20 20:59N 20°29' W 086°59'0 0.0
2017-May-20 20:29N 20°29' W 086°59'0 0.0
2017-May-20 19:59N 20°29' W 086°59'0 0.0
2017-May-20 19:29N 20°29' W 086°59'0 0.0
2017-May-20 18:55N 20°29' W 086°59'0 0.0
2017-May-20 18:28N 20°29' W 086°59'0 0.0
2017-May-20 17:58N 20°29' W 086°59'0 0.0
2017-May-20 17:28N 20°29' W 086°59'0 0.0
2017-May-20 16:58N 20°29' W 086°59'0 0.0
2017-May-20 16:30N 20°29' W 086°59'0 0.0
2017-May-20 16:00N 20°29' W 086°59'0 0.0
2017-May-20 15:30N 20°29' W 086°59'0 0.0
2017-May-20 15:00N 20°29' W 086°59'0 0.0
2017-May-20 14:30N 20°29' W 086°59'0 0.0
2017-May-20 13:29N 20°29' W 086°59'0 0.0
2017-May-20 12:59N 20°29' W 086°59'0 0.0
2017-May-20 12:29N 20°29' W 086°59'0 0.0
2017-May-20 11:58N 20°29' W 086°59'1 1.2
2017-May-20 11:30N 20°29' W 086°59'4 8.2
2017-May-20 11:00N 20°33' W 086°57'115 9.6
2017-May-19 23:00N 22°12' W 085°54'16114.6 120 / 241010.9 5.4 30.024.627.0
2017-May-19 12:00N 24°36' W 084°36'21515.5 110 / 211013.310.8 26.023.227.6
2017-May-18 22:10N 27°41' W 082°34'313.8
2017-May-18 21:56N 27°44' W 082°32'512.1
2017-May-18 21:30N 27°48' W 082°29'612.0
2017-May-18 21:00N 27°53' W 082°26'3 5.6
2017-May-18 20:31N 27°56' W 082°27'0 0.8
2017-May-18 19:58N 27°57' W 082°27'0 0.0
2017-May-18 19:28N 27°57' W 082°27'0 0.0
2017-May-18 18:58N 27°57' W 082°27'0 0.0
2017-May-18 18:28N 27°57' W 082°27'0 0.0
2017-May-18 18:00N 27°57' W 082°27'0 0.0
2017-May-18 17:30N 27°57' W 082°27'0 0.0
2017-May-18 16:54N 27°57' W 082°27'0 0.0
2017-May-18 16:30N 27°57' W 082°27'0 0.0
2017-May-18 15:56N 27°57' W 082°27'0 0.0
2017-May-18 15:29N 27°57' W 082°27'0 0.0
2017-May-18 14:59N 27°57' W 082°27'0 0.0
2017-May-18 13:59N 27°57' W 082°27'0 0.0
2017-May-18 13:28N 27°57' W 082°27'0 0.0
2017-May-18 12:58N 27°57' W 082°27'0 0.0
2017-May-18 12:28N 27°57' W 082°27'0 0.0
2017-May-18 11:58N 27°57' W 082°27'0 0.0
2017-May-18 11:31N 27°57' W 082°27'0 0.0
2017-May-18 11:00N 27°57' W 082°27'0 0.4
2017-May-18 10:30N 27°57' W 082°27'2 3.6
2017-May-18 10:00N 27°55' W 082°27'4 8.9
2017-May-18 09:30N 27°50' W 082°27'612.0
2017-May-18 09:00N 27°46' W 082°31'713.6
2017-May-18 08:30N 27°40' W 082°36'10611.2
2017-May-17 23:00N 26°12' W 083°42'21317.8 130 / 81015.1 5.4 26.023.225.0
2017-May-17 11:00N 23°00' W 085°24'182 5.3 110 / 241012.010.8 28.022.427.3
2017-May-16 00:56N 20°24' W 087°04'512.0
2017-May-16 00:30N 20°29' W 087°02'3 6.1
2017-May-16 00:00N 20°29' W 086°59'0 0.3
2017-May-15 23:30N 20°29' W 086°59'0 0.0
2017-May-15 23:00N 20°29' W 086°59'0 0.0
2017-May-15 22:30N 20°29' W 086°59'0 0.0
2017-May-15 21:59N 20°29' W 086°59'0 0.0
2017-May-15 21:29N 20°29' W 086°59'0 0.0
2017-May-15 20:59N 20°29' W 086°59'0 0.0
2017-May-15 20:29N 20°29' W 086°59'0 0.0
2017-May-15 19:59N 20°29' W 086°59'0 0.0
2017-May-15 19:28N 20°29' W 086°59'0 0.0
2017-May-15 18:58N 20°29' W 086°59'0 0.0
2017-May-15 18:28N 20°29' W 086°59'0 0.0
2017-May-15 17:58N 20°29' W 086°59'0 0.0
2017-May-15 17:27N 20°29' W 086°59'0 0.0
2017-May-15 17:00N 20°29' W 086°59'0 0.0
2017-May-15 16:27N 20°29' W 086°59'0 0.0
2017-May-15 16:00N 20°29' W 086°59'0 0.0
2017-May-15 15:24N 20°29' W 086°59'0 0.0
2017-May-15 14:59N 20°29' W 086°59'0 0.0
2017-May-15 13:56N 20°29' W 086°59'0 0.0
2017-May-15 13:29N 20°29' W 086°59'0 0.0
2017-May-15 12:59N 20°29' W 086°59'0 0.0
2017-May-15 12:25N 20°29' W 086°59'0 0.0
2017-May-15 11:58N 20°29' W 086°59'1 1.4
2017-May-15 11:30N 20°29' W 086°59'4 7.9
2017-May-15 11:00N 20°33' W 086°57'  
Track history (hours):
 
Tides and Currents Weather Stations Pressure Air Temp Water Temp Dewpoint Dewpoint Depression Visibility Wind Speed Wind Dir Waves Ship Positions

Paradise

Operator: Carnival Cruise Lines

Last reported at 2017-May-25 07:00 UTC. Time now 2017-May-25 10:29 UTC.
Position N 19°00' W 087°06'.

Type: Ship. MMSI: 355833000.

Wind from 140 at 22 knots

Barometer 1010.1 mb
Air temperature 28.0 ° C
Visibility: greater than 5.4 NM
Dewpoint 25.3 ° C
Water temperature 27.0 ° C

Date/timePositionNaut miles runAvg speedWind from/ knotsBaromVisibWave heightAir tempDewpointWater temp
2017-May-25 07:00N 19°00' W 087°06'8314.8 140 / 221010.1 5.4 28.025.327.0
2017-May-25 01:23N 20°23' W 087°04'614.5
2017-May-25 01:00N 20°28' W 087°02'4 7.1
2017-May-25 00:30N 20°29' W 086°59'0 0.6
2017-May-24 23:56N 20°29' W 086°59'0 0.0
2017-May-24 23:29N 20°29' W 086°59'0 0.0
2017-May-24 22:59N 20°29' W 086°59'0 0.0
2017-May-24 22:29N 20°29' W 086°59'0 0.0
2017-May-24 21:59N 20°29' W 086°59'0 0.0
2017-May-24 21:28N 20°29' W 086°59'0 0.0
2017-May-24 20:58N 20°29' W 086°59'0 0.0
2017-May-24 20:28N 20°29' W 086°59'0 0.0
2017-May-24 19:55N 20°29' W 086°59'0 0.0
2017-May-24 19:21N 20°29' W 086°59'0 0.0
2017-May-24 19:00N 20°29' W 086°59'0 0.0
2017-May-24 18:30N 20°29' W 086°59'0 0.0
2017-May-24 18:00N 20°29' W 086°59'0 0.0
2017-May-24 17:30N 20°29' W 086°59'0 0.0
2017-May-24 16:59N 20°29' W 086°59'0 0.0
2017-May-24 16:29N 20°29' W 086°59'0 0.0
2017-May-24 15:59N 20°29' W 086°59'0 0.0
2017-May-24 15:29N 20°29' W 086°59'0 0.0
2017-May-24 14:59N 20°29' W 086°59'0 0.0
2017-May-24 14:28N 20°29' W 086°59'0 0.0
2017-May-24 13:28N 20°29' W 086°59'0 0.0
2017-May-24 12:58N 20°29' W 086°59'0 0.0
2017-May-24 12:31N 20°29' W 086°59'0 0.0
2017-May-24 12:00N 20°29' W 086°59'0 0.8
2017-May-24 11:30N 20°29' W 086°59'4 7.9
2017-May-24 11:00N 20°33' W 086°57'4611.4
2017-May-24 07:00N 21°06' W 086°24'11410.3 150 / 301011.1 5.4 28.025.327.0
2017-May-23 20:00N 22°48' W 085°30'20015.4 160 / 271012.5 5.4 28.025.326.0
2017-May-23 07:00N 25°48' W 083°54'12915.1 160 / 211014.0 5.4 26.023.225.0
2017-May-22 22:27N 27°38' W 082°38'714.7
2017-May-22 21:59N 27°43' W 082°33'612.9
2017-May-22 21:31N 27°48' W 082°29'612.3
2017-May-22 21:00N 27°54' W 082°26'3 5.6
2017-May-22 20:30N 27°56' W 082°27'0 0.8
2017-May-22 20:00N 27°57' W 082°27'0 0.0
2017-May-22 19:30N 27°57' W 082°27'0 0.0
2017-May-22 19:00N 27°57' W 082°27'0 0.0
2017-May-22 18:29N 27°57' W 082°27'0 0.0
2017-May-22 17:59N 27°57' W 082°27'0 0.0
2017-May-22 17:29N 27°57' W 082°27'0 0.0
2017-May-22 16:59N 27°57' W 082°27'0 0.0
2017-May-22 16:29N 27°57' W 082°27'0 0.0
2017-May-22 15:58N 27°57' W 082°27'0 0.0
2017-May-22 15:28N 27°57' W 082°27'0 0.0
2017-May-22 14:58N 27°57' W 082°27'0 0.0
2017-May-22 14:01N 27°57' W 082°27'0 0.0
2017-May-22 13:30N 27°57' W 082°27'0 0.0
2017-May-22 13:00N 27°57' W 082°27'0 0.0
2017-May-22 12:30N 27°57' W 082°27'0 0.0
2017-May-22 12:00N 27°57' W 082°27'0 0.2
2017-May-22 11:30N 27°57' W 082°27'2 4.4
2017-May-22 11:00N 27°54' W 082°26'510.6
2017-May-22 10:31N 27°49' W 082°27'612.6
2017-May-22 10:00N 27°45' W 082°32'713.9
2017-May-22 09:30N 27°39' W 082°37'15211.2
2017-May-21 20:00N 25°30' W 084°06'33215.9 120 / 111018.5 5.4 27.025.725.0
2017-May-20 23:05N 20°38' W 086°56'218.4
2017-May-20 22:59N 20°36' W 086°57'714.6
2017-May-20 22:30N 20°30' W 086°59'1 2.2
2017-May-20 22:00N 20°29' W 086°59'0 0.0
2017-May-20 21:30N 20°29' W 086°59'0 0.0
2017-May-20 20:59N 20°29' W 086°59'0 0.0
2017-May-20 20:29N 20°29' W 086°59'0 0.0
2017-May-20 19:59N 20°29' W 086°59'0 0.0
2017-May-20 19:29N 20°29' W 086°59'0 0.0
2017-May-20 18:55N 20°29' W 086°59'0 0.0
2017-May-20 18:28N 20°29' W 086°59'0 0.0
2017-May-20 17:58N 20°29' W 086°59'0 0.0
2017-May-20 17:28N 20°29' W 086°59'0 0.0
2017-May-20 16:58N 20°29' W 086°59'0 0.0
2017-May-20 16:30N 20°29' W 086°59'0 0.0
2017-May-20 16:00N 20°29' W 086°59'0 0.0
2017-May-20 15:30N 20°29' W 086°59'0 0.0
2017-May-20 15:00N 20°29' W 086°59'0 0.0
2017-May-20 14:30N 20°29' W 086°59'0 0.0
2017-May-20 13:29N 20°29' W 086°59'0 0.0
2017-May-20 12:59N 20°29' W 086°59'0 0.0
2017-May-20 12:29N 20°29' W 086°59'0 0.0
2017-May-20 11:58N 20°29' W 086°59'1 1.2
2017-May-20 11:30N 20°29' W 086°59'4 8.2
2017-May-20 11:00N 20°33' W 086°57'115 9.6
2017-May-19 23:00N 22°12' W 085°54'16114.6 120 / 241010.9 5.4 30.024.627.0
2017-May-19 12:00N 24°36' W 084°36'21515.5 110 / 211013.310.8 26.023.227.6
2017-May-18 22:10N 27°41' W 082°34'313.8
2017-May-18 21:56N 27°44' W 082°32'512.1
2017-May-18 21:30N 27°48' W 082°29'612.0
2017-May-18 21:00N 27°53' W 082°26'3 5.6
2017-May-18 20:31N 27°56' W 082°27'0 0.8
2017-May-18 19:58N 27°57' W 082°27'0 0.0
2017-May-18 19:28N 27°57' W 082°27'0 0.0
2017-May-18 18:58N 27°57' W 082°27'0 0.0
2017-May-18 18:28N 27°57' W 082°27'0 0.0
2017-May-18 18:00N 27°57' W 082°27'0 0.0
2017-May-18 17:30N 27°57' W 082°27'0 0.0
2017-May-18 16:54N 27°57' W 082°27'0 0.0
2017-May-18 16:30N 27°57' W 082°27'0 0.0
2017-May-18 15:56N 27°57' W 082°27'0 0.0
2017-May-18 15:29N 27°57' W 082°27'0 0.0
2017-May-18 14:59N 27°57' W 082°27'0 0.0
2017-May-18 13:59N 27°57' W 082°27'0 0.0
2017-May-18 13:28N 27°57' W 082°27'0 0.0
2017-May-18 12:58N 27°57' W 082°27'0 0.0
2017-May-18 12:28N 27°57' W 082°27'0 0.0
2017-May-18 11:58N 27°57' W 082°27'0 0.0
2017-May-18 11:31N 27°57' W 082°27'0 0.0
2017-May-18 11:00N 27°57' W 082°27'0 0.4
2017-May-18 10:30N 27°57' W 082°27'2 3.6
2017-May-18 10:00N 27°55' W 082°27'4 8.9
2017-May-18 09:30N 27°50' W 082°27'612.0
2017-May-18 09:00N 27°46' W 082°31'713.6
2017-May-18 08:30N 27°40' W 082°36'10611.2
2017-May-17 23:00N 26°12' W 083°42'21317.8 130 / 81015.1 5.4 26.023.225.0
2017-May-17 11:00N 23°00' W 085°24'182 5.3 110 / 241012.010.8 28.022.427.3
2017-May-16 00:56N 20°24' W 087°04'512.0
2017-May-16 00:30N 20°29' W 087°02'3 6.1
2017-May-16 00:00N 20°29' W 086°59'0 0.3
2017-May-15 23:30N 20°29' W 086°59'0 0.0
2017-May-15 23:00N 20°29' W 086°59'0 0.0
2017-May-15 22:30N 20°29' W 086°59'0 0.0
2017-May-15 21:59N 20°29' W 086°59'0 0.0
2017-May-15 21:29N 20°29' W 086°59'0 0.0
2017-May-15 20:59N 20°29' W 086°59'0 0.0
2017-May-15 20:29N 20°29' W 086°59'0 0.0
2017-May-15 19:59N 20°29' W 086°59'0 0.0
2017-May-15 19:28N 20°29' W 086°59'0 0.0
2017-May-15 18:58N 20°29' W 086°59'0 0.0
2017-May-15 18:28N 20°29' W 086°59'0 0.0
2017-May-15 17:58N 20°29' W 086°59'0 0.0
2017-May-15 17:27N 20°29' W 086°59'0 0.0
2017-May-15 17:00N 20°29' W 086°59'0 0.0
2017-May-15 16:27N 20°29' W 086°59'0 0.0
2017-May-15 16:00N 20°29' W 086°59'0 0.0
2017-May-15 15:24N 20°29' W 086°59'0 0.0
2017-May-15 14:59N 20°29' W 086°59'0 0.0
2017-May-15 13:56N 20°29' W 086°59'0 0.0
2017-May-15 13:29N 20°29' W 086°59'0 0.0
2017-May-15 12:59N 20°29' W 086°59'0 0.0
2017-May-15 12:25N 20°29' W 086°59'0 0.0
2017-May-15 11:58N 20°29' W 086°59'1 1.4
2017-May-15 11:30N 20°29' W 086°59'4 7.9
2017-May-15 11:00N 20°33' W 086°57'  

Dump ship's entire track history